• Join FlightAware (Why Join?)
  • Login
  • US Flag 
07:16PM EST


 

Airport Tracker/Info


-or-


 

Live Flight TrackerFlight Track Log ✈ FDX403 ✈ 05-May-2012 ✈ KDSM - KMEM

Flight Track Log - Related Links

Times and Time Zones

All times are in EDT time to prevent confusion due to time zone crossing. See the FDX403 flight status page for this flight to view local times or setup timezone preferences in your user account.

Time Position Orientation Groundspeed Altitude Reporting Facility
EDT Latitude Longitude Course Direction KTS MPH feet Rate Location/Type
09:24AM 41.5328 -93.6436 135° Southeast 157 181 1,400  Level Minneapolis Center
09:26AM 41.4933 -93.5908 154° Southeast 190 219 2,700 1,200 Climbing Minneapolis Center
09:27AM 41.4372 -93.5550 153° Southeast 231 266 4,000 1,920 Climbing Minneapolis Center
09:29AM 41.3031 -93.4633 151° Southeast 303 349 8,600 2,040 Climbing Chicago Center
09:30AM 41.2319 -93.4119 152° Southeast 298 343 10,300 1,260 Climbing Chicago Center
09:31AM 41.1444 -93.3511 163° South 317 365 11,200 1,680 Climbing Chicago Center
09:32AM 41.0417 -93.3092 158° South 355 409 13,700 2,340 Climbing Chicago Center
09:33AM 40.9433 -93.2564 159° South 375 432 15,900 2,100 Climbing Chicago Center
09:34AM 40.8367 -93.2033 159° South 397 457 17,900 1,620 Climbing Chicago Center
09:36AM 40.5472 -93.0539 159° South 432 497 21,600 1,380 Climbing Kansas City Center
09:37AM 40.4361 -92.9989 160° South 463 533 22,900 1,560 Climbing Kansas City Center
09:38AM 40.3186 -92.9414 160° South 469 540 24,800 1,560 Climbing Kansas City Center
09:39AM 40.1844 -92.8767 158° South 474 545 26,100 960 Climbing Kansas City Center
09:40AM 40.0817 -92.8219 159° South 481 554 26,800 1,020 Climbing Kansas City Center
09:41AM 39.9453 -92.7550 159° South 481 554 28,200 1,020 Climbing Kansas City Center
09:42AM 39.8153 -92.6906 159° South 491 565 28,900 780 Climbing Kansas City Center
09:43AM 39.6808 -92.6239 159° South 503 579 29,800 540 Climbing Kansas City Center
09:44AM 39.5464 -92.5575 160° South 513 590 30,000 120 Climbing Kansas City Center
09:45AM 39.4119 -92.4939 160° South 513 590 30,100 900 Climbing Kansas City Center
09:46AM 39.2794 -92.4306 158° South 513 590 31,800 1,440 Climbing Kansas City Center
09:47AM 39.1556 -92.3672 160° South 502 578 33,000 600 Climbing Kansas City Center
09:48AM 39.0167 -92.3017 159° South 491 565 33,000  Level Kansas City Center
09:49AM 38.8925 -92.2414 159° South 484 557 33,000  Level Kansas City Center
09:50AM 38.7683 -92.1814 159° South 484 557 33,000  Level Kansas City Center
09:51AM 38.6442 -92.1217 159° South 479 551 33,000  Level Kansas City Center
09:52AM 38.5200 -92.0619 159° South 479 551 33,000  Level Kansas City Center
09:53AM 38.3978 -92.0025 160° South 479 551 33,000  Level Kansas City Center
09:54AM 38.2714 -91.9431 160° South 479 551 33,000  Level Kansas City Center
09:55AM 38.1469 -91.8842 160° South 474 545 33,000  Level Kansas City Center
09:56AM 38.0206 -91.8253 160° South 474 545 33,000  Level Kansas City Center
09:57AM 37.8964 -91.7692 160° South 474 545 33,000  Level Kansas City Center
09:58AM 37.7678 -91.7108 159° South 474 545 33,000  Level Kansas City Center
09:59AM 37.6581 -91.6572 160° South 474 545 33,000  Level Kansas City Center
10:00AM 37.5314 -91.5992 160° South 479 551 33,000 -360 Level Kansas City Center
10:02AM 37.3100 -91.4964 160° South 466 536 32,100 -720 Descending Memphis Center
10:03AM 37.1878 -91.4400 161° South 466 536 31,100 -600 Descending Memphis Center
10:04AM 37.0631 -91.3864 160° South 466 536 31,000 -60 Descending Memphis Center
10:05AM 36.9428 -91.3303 157° South 466 536 31,000  Level Memphis Center
10:06AM 36.8244 -91.2667 155° Southeast 466 536 31,000  Level Memphis Center
10:07AM 36.7042 -91.1981 158° South 473 544 31,000  Level Memphis Center
10:08AM 36.5794 -91.1347 158° South 473 544 31,000 -600 Level Memphis Center
10:09AM 36.4714 -91.0794 157° South 473 544 29,900 -2,100 Descending Memphis Center
10:10AM 36.3528 -91.0167 156° South 473 544 26,800 -2,880 Descending Memphis Center
10:11AM 36.2428 -90.9567 157° South 462 532 24,200 -2,400 Descending Memphis Center
10:12AM 36.1344 -90.8992 158° South 442 509 22,000 -2,160 Descending Memphis Center
10:13AM 36.0325 -90.8472 156° South 415 478 19,900 -2,100 Descending Memphis Center
10:14AM 35.9347 -90.7928 156° South 401 461 17,800 -2,100 Descending Memphis Center
10:15AM 35.8347 -90.7386 156° South 394 453 15,800 -1,860 Descending Memphis Center
10:16AM 35.7433 -90.6894 157° South 382 440 14,100 -1,740 Descending Memphis Center
10:17AM 35.6369 -90.6328 156° South 375 432 12,400 -1,620 Descending Memphis Center
10:18AM 35.5433 -90.5817 158° South 375 432 10,900 -1,200 Descending Memphis Center
10:19AM 35.4536 -90.5381 120° Southeast 370 426 10,000 -900 Descending Memphis Center
10:20AM 35.4100 -90.4461 110° East 297 342 9,200 -1,140 Descending Memphis Center
10:21AM 35.3828 -90.3544 109° East 290 334 7,800 -1,500 Descending Memphis Center
10:22AM 35.3578 -90.2653 115° Southeast 283 326 6,200 -1,140 Descending Memphis Center
10:23AM 35.3264 -90.1814 118° Southeast 270 311 5,600 -900 Descending Memphis Center
10:24AM 35.2950 -90.1078 128° Southeast 270 311 4,400 -1,260 Descending Memphis Center
10:25AM 35.2489 -90.0367 150° Southeast 270 311 3,100 -1,200 Descending Memphis Center
10:26AM 35.1883 -89.9939 158° South 259 298 2,000 -780 Descending Memphis Center
10:26AM 35.1667 -89.9833 180° South 208 239 2,000 -420 Level Anchorage Center
10:27AM 35.1167 -89.9833 180° South 176 203 1,400 -600 Descending Anchorage Center
10:28AM 35.0667 -89.9833 158° South 148 170 700 -600 Descending Anchorage Center
10:38AM 35.0333 -89.9667 318° Northwest  Level FlightAware Approximate
10:39AM 35.1183 -90.0602 138° Southeast  Level Estimated
10:40AM 35.0333 -89.9667 318° Northwest  Level FlightAware Approximate
10:41AM 35.1183 -90.0602 138° Southeast  Level Estimated
10:42AM 35.0333 -89.9667 318° Northwest  Level FlightAware Approximate
10:43AM 35.1183 -90.0602 138° Southeast  Level Estimated
10:44AM 35.0333 -89.9667 318° Northwest  Level FlightAware Approximate
10:45AM 35.1183 -90.0602 138° Southeast  Level Estimated
10:46AM 35.0333 -89.9667 138° Southeast  Level FlightAware Approximate